createdAt,value
2023-01-30T00:01:02.743Z,19.07
2023-01-30T00:04:06.052Z,26.53
2023-01-30T00:07:09.241Z,22.33
2023-01-30T00:10:12.927Z,25.20
2023-01-30T00:13:16.733Z,24.83
2023-01-30T00:16:21.349Z,21.67
2023-01-30T00:19:24.550Z,37.53
2023-01-30T00:22:27.738Z,31.60
2023-01-30T00:25:31.651Z,22.67
2023-01-30T00:28:35.400Z,22.90
2023-01-30T00:31:40.047Z,18.47
2023-01-30T00:34:43.362Z,19.87
2023-01-30T00:37:46.544Z,20.07
2023-01-30T00:40:50.139Z,26.63
2023-01-30T00:44:11.007Z,18.60
2023-01-30T00:47:15.773Z,26.07
2023-01-30T00:50:19.068Z,23.60
2023-01-30T00:53:22.236Z,22.60
2023-01-30T00:56:25.426Z,20.00
2023-01-30T00:59:28.761Z,22.17
2023-01-30T01:02:33.313Z,20.97
2023-01-30T01:05:36.571Z,24.70
2023-01-30T01:08:39.701Z,23.77
2023-01-30T01:11:42.886Z,19.03
2023-01-30T01:14:46.243Z,23.10
2023-01-30T01:17:51.589Z,18.30
2023-01-30T01:20:54.776Z,20.30
2023-01-30T01:23:59.701Z,18.23
2023-01-30T01:27:02.902Z,25.07
2023-01-30T01:30:07.185Z,24.27
2023-01-30T01:33:11.712Z,21.50
2023-01-30T01:36:29.425Z,24.53
2023-01-30T01:39:51.907Z,21.40
2023-01-30T01:42:55.072Z,21.53
2023-01-30T01:46:03.037Z,21.67
2023-01-30T01:49:14.021Z,21.17
2023-01-30T01:52:18.750Z,22.37
2023-01-30T01:55:24.162Z,19.17
2023-01-30T01:58:30.844Z,22.53
2023-01-30T02:01:34.547Z,22.07
2023-01-30T02:04:58.926Z,20.70
2023-01-30T02:08:05.921Z,20.67
2023-01-30T02:11:13.764Z,22.60
2023-01-30T02:14:19.151Z,18.13
2023-01-30T02:17:22.404Z,19.67
2023-01-30T02:20:37.466Z,17.53
2023-01-30T02:24:16.145Z,19.83
2023-01-30T02:27:30.937Z,21.37
2023-01-30T02:31:08.731Z,20.20
2023-01-30T02:34:28.236Z,24.17
2023-01-30T02:37:44.940Z,22.10
2023-01-30T02:40:57.992Z,19.53
2023-01-30T02:44:06.090Z,24.30
2023-01-30T02:47:15.460Z,23.27
2023-01-30T02:50:23.830Z,24.07
2023-01-30T02:53:27.131Z,20.50
2023-01-30T02:56:30.291Z,20.60
2023-01-30T02:59:36.456Z,23.33
2023-01-30T03:03:08.261Z,23.30
2023-01-30T03:06:34.573Z,18.67
2023-01-30T03:09:49.741Z,20.20
2023-01-30T03:13:00.213Z,18.87
2023-01-30T03:16:07.817Z,20.57
2023-01-30T03:19:14.507Z,20.80
2023-01-30T03:22:18.001Z,17.47
2023-01-30T03:25:23.467Z,20.90
2023-01-30T03:28:27.728Z,21.13
2023-01-30T03:31:30.981Z,25.27
2023-01-30T03:34:35.574Z,20.57
2023-01-30T03:37:39.074Z,24.03
2023-01-30T03:40:42.302Z,19.30
2023-01-30T03:43:45.501Z,21.20
2023-01-30T03:46:48.648Z,21.17
2023-01-30T03:49:53.247Z,22.23
2023-01-30T03:52:56.508Z,20.77
2023-01-30T03:55:59.732Z,23.20
2023-01-30T03:59:02.888Z,23.30
2023-01-30T04:02:06.181Z,17.47
2023-01-30T04:05:11.034Z,21.67
2023-01-30T04:08:14.210Z,24.37
2023-01-30T04:11:17.385Z,23.70
2023-01-30T04:14:20.563Z,18.63
2023-01-30T04:17:23.775Z,19.30
2023-01-30T04:20:28.384Z,22.70
2023-01-30T04:23:31.548Z,18.33
2023-01-30T04:26:34.718Z,20.73
2023-01-30T04:29:37.916Z,24.33
2023-01-30T04:32:41.081Z,25.13
2023-01-30T04:35:54.383Z,17.80
2023-01-30T04:38:58.352Z,20.60
2023-01-30T04:42:01.511Z,17.03
2023-01-30T04:45:05.177Z,23.03
2023-01-30T04:48:08.353Z,19.93
2023-01-30T04:51:13.001Z,22.80
2023-01-30T04:54:16.216Z,18.03
2023-01-30T04:57:19.408Z,18.73
2023-01-30T05:00:22.826Z,19.30
2023-01-30T05:03:26.019Z,20.83
2023-01-30T05:06:31.839Z,20.30
2023-01-30T05:09:34.989Z,22.47
2023-01-30T05:12:38.275Z,16.93
2023-01-30T05:15:41.657Z,22.37
2023-01-30T05:18:45.435Z,17.87
2023-01-30T05:21:50.048Z,21.73
2023-01-30T05:24:53.259Z,20.93
2023-01-30T05:27:57.211Z,19.70
2023-01-30T05:31:03.264Z,20.13
2023-01-30T05:34:06.559Z,18.90
2023-01-30T05:37:11.847Z,21.53
2023-01-30T05:40:15.581Z,25.57
2023-01-30T05:43:18.736Z,18.47
2023-01-30T05:46:22.036Z,22.00
2023-01-30T05:49:25.367Z,18.23
2023-01-30T05:52:29.912Z,20.93
2023-01-30T05:55:33.077Z,20.63
2023-01-30T05:58:36.263Z,22.07
2023-01-30T06:01:39.500Z,17.23
2023-01-30T06:04:42.679Z,20.80
2023-01-30T06:07:47.221Z,23.93
2023-01-30T06:10:50.478Z,21.43
2023-01-30T06:13:53.669Z,24.50
2023-01-30T06:16:56.889Z,24.53
2023-01-30T06:20:00.145Z,26.23
2023-01-30T06:23:04.710Z,21.50
2023-01-30T06:26:09.218Z,26.87
2023-01-30T06:29:12.680Z,25.93
2023-01-30T06:32:15.934Z,23.40
2023-01-30T06:35:19.479Z,23.20
2023-01-30T06:38:25.606Z,23.07
2023-01-30T06:41:29.303Z,24.13
2023-01-30T06:44:32.438Z,21.87
2023-01-30T06:47:35.598Z,28.03
2023-01-30T06:50:38.816Z,27.40
2023-01-30T06:53:43.412Z,25.17
2023-01-30T06:56:46.582Z,23.80
2023-01-30T06:59:49.754Z,19.33
2023-01-30T07:02:52.930Z,22.37
2023-01-30T07:05:56.164Z,24.07
2023-01-30T07:09:00.786Z,26.60
2023-01-30T07:12:04.013Z,24.10
2023-01-30T07:15:08.584Z,22.30
2023-01-30T07:18:11.763Z,28.97
2023-01-30T07:21:14.932Z,28.83
2023-01-30T07:24:19.511Z,30.57
2023-01-30T07:27:22.688Z,23.23
2023-01-30T07:30:25.938Z,21.23
2023-01-30T07:33:29.143Z,22.90
2023-01-30T07:36:33.694Z,26.70
2023-01-30T07:39:38.305Z,21.37
2023-01-30T07:42:41.501Z,24.77
2023-01-30T07:45:46.755Z,24.73
2023-01-30T07:48:49.977Z,17.13
2023-01-30T07:51:53.735Z,19.87
2023-01-30T07:55:00.531Z,25.50
2023-01-30T07:58:05.216Z,19.80
2023-01-30T08:01:08.432Z,22.13
2023-01-30T08:04:11.649Z,23.00
2023-01-30T08:07:14.819Z,22.27
2023-01-30T08:10:19.983Z,21.63
2023-01-30T08:13:23.391Z,27.00
2023-01-30T08:16:26.632Z,19.77
2023-01-30T08:19:29.808Z,23.57
2023-01-30T08:22:33.014Z,25.00
2023-01-30T08:25:38.357Z,27.27
2023-01-30T08:28:41.682Z,26.90
2023-01-30T08:31:45.033Z,28.83
2023-01-30T08:34:48.233Z,26.20
2023-01-30T08:37:51.490Z,23.57
2023-01-30T08:40:57.107Z,31.77
2023-01-30T08:44:00.289Z,30.87
2023-01-30T08:47:03.546Z,47.53
2023-01-30T08:50:07.161Z,28.10
2023-01-30T08:53:10.554Z,28.07
2023-01-30T08:56:15.126Z,31.23
2023-01-30T08:59:18.384Z,28.20
2023-01-30T09:02:21.643Z,39.17
2023-01-30T09:05:25.652Z,29.13
2023-01-30T09:08:28.880Z,29.80
2023-01-30T09:11:33.480Z,29.87
2023-01-30T09:14:36.636Z,30.20
2023-01-30T09:17:39.959Z,25.67
2023-01-30T09:20:43.128Z,36.03
2023-01-30T09:23:46.479Z,32.63
2023-01-30T09:26:51.163Z,25.47
2023-01-30T09:29:54.372Z,24.23
2023-01-30T09:32:57.573Z,30.83
2023-01-30T09:36:00.824Z,25.00
2023-01-30T09:39:04.063Z,23.70
2023-01-30T09:42:35.579Z,36.10
2023-01-30T09:45:50.368Z,26.10
2023-01-30T09:49:02.679Z,24.63
2023-01-30T09:52:21.600Z,25.80
2023-01-30T09:55:29.249Z,27.03
2023-01-30T09:58:43.855Z,27.23
2023-01-30T10:01:55.461Z,25.50
2023-01-30T10:05:02.146Z,22.33
2023-01-30T10:08:23.191Z,28.63
2023-01-30T10:11:40.889Z,21.43
2023-01-30T10:15:00.546Z,23.20
2023-01-30T10:18:22.293Z,25.57
2023-01-30T10:21:38.228Z,19.30
2023-01-30T10:24:52.717Z,17.17
2023-01-30T10:28:01.467Z,15.83
2023-01-30T10:31:12.530Z,16.67
2023-01-30T10:34:19.234Z,14.30
2023-01-30T10:37:30.804Z,18.33
2023-01-30T10:40:41.067Z,13.20
2023-01-30T10:43:48.907Z,13.37
2023-01-30T10:47:08.931Z,11.80
2023-01-30T10:50:19.319Z,12.57
2023-01-30T10:53:27.313Z,42.23
2023-01-30T10:56:36.960Z,22.30
2023-01-30T10:59:51.310Z,17.07
2023-01-30T11:03:05.945Z,16.47
2023-01-30T11:06:13.971Z,14.50
2023-01-30T11:09:17.127Z,14.80
2023-01-30T11:12:20.447Z,13.67
2023-01-30T11:15:25.538Z,16.63
2023-01-30T11:21:56.578Z,14.70
2023-01-30T11:25:04.752Z,16.00
2023-01-30T11:28:07.961Z,18.23
2023-01-30T11:31:28.277Z,12.20
2023-01-30T11:34:40.385Z,10.87
2023-01-30T11:37:44.965Z,10.60
2023-01-30T11:40:48.114Z,10.23
2023-01-30T11:43:51.729Z,10.68
2023-01-30T11:46:55.301Z,9.60
2023-01-30T11:50:06.420Z,9.02
2023-01-30T11:53:34.085Z,10.68
2023-01-30T11:56:41.083Z,11.00
2023-01-30T11:59:47.620Z,10.48
2023-01-30T12:02:51.931Z,9.70
2023-01-30T12:05:58.303Z,9.68
2023-01-30T12:09:01.823Z,9.38
2023-01-30T12:12:24.591Z,9.60
2023-01-30T12:15:29.398Z,9.05
2023-01-30T12:18:44.432Z,7.68
2023-01-30T12:21:54.454Z,9.38
2023-01-30T12:25:00.868Z,8.98
2023-01-30T12:28:11.849Z,8.55
2023-01-30T12:31:21.142Z,8.00
2023-01-30T12:34:27.217Z,9.85
2023-01-30T12:37:49.367Z,10.60
2023-01-30T12:41:07.104Z,7.70
2023-01-30T12:44:54.960Z,8.90
2023-01-30T12:48:22.109Z,9.30
2023-01-30T12:51:42.524Z,6.57
2023-01-30T12:54:56.497Z,8.45
2023-01-30T12:58:04.660Z,8.77
2023-01-30T13:01:22.455Z,7.15
2023-01-30T13:04:46.988Z,8.93
2023-01-30T13:08:10.562Z,7.90
2023-01-30T13:11:31.508Z,14.00
2023-01-30T13:14:40.367Z,16.20
2023-01-30T13:17:54.557Z,10.77
2023-01-30T13:21:07.397Z,11.68
2023-01-30T13:24:22.444Z,10.23
2023-01-30T13:27:29.398Z,18.13
2023-01-30T13:30:33.389Z,19.75
2023-01-30T13:33:39.535Z,22.63
2023-01-30T13:36:48.699Z,9.33
2023-01-30T13:39:55.867Z,11.30
2023-01-30T13:43:04.371Z,26.40
2023-01-30T13:46:10.821Z,15.00
2023-01-30T13:49:22.831Z,59.77
2023-01-30T13:52:31.861Z,15.67
2023-01-30T13:55:43.013Z,21.17
2023-01-30T13:58:51.388Z,29.23
2023-01-30T14:02:18.466Z,39.23
2023-01-30T14:06:01.756Z,22.50
2023-01-30T14:09:19.325Z,11.03
2023-01-30T14:12:27.150Z,29.03
2023-01-30T14:15:32.100Z,20.13
2023-01-30T14:18:38.842Z,28.17
2023-01-30T14:21:54.827Z,26.63
2023-01-30T14:25:46.521Z,13.73
2023-01-30T14:28:50.986Z,47.60
2023-01-30T14:31:55.891Z,14.03
2023-01-30T14:35:21.854Z,16.90
2023-01-30T14:38:25.683Z,11.30
2023-01-30T14:41:29.789Z,16.27
2023-01-30T14:45:05.323Z,14.17
2023-01-30T14:48:30.839Z,12.27
2023-01-30T14:51:37.812Z,9.97
2023-01-30T14:54:49.582Z,7.47
2023-01-30T14:57:57.077Z,8.07
2023-01-30T15:01:00.969Z,15.17
2023-01-30T15:04:06.237Z,10.33
2023-01-30T15:07:13.275Z,11.13
2023-01-30T15:10:31.777Z,8.43
2023-01-30T15:13:56.876Z,11.57
2023-01-30T15:17:10.732Z,10.00
2023-01-30T15:20:28.165Z,10.47
2023-01-30T15:23:57.907Z,11.33
2023-01-30T15:27:10.657Z,8.77
2023-01-30T15:30:34.946Z,11.73
2023-01-30T15:33:46.040Z,16.83
2023-01-30T15:36:50.695Z,11.53
2023-01-30T15:40:20.811Z,10.17
2023-01-30T15:44:01.274Z,10.53
2023-01-30T15:47:47.361Z,14.97
2023-01-30T15:50:53.780Z,14.67
2023-01-30T15:53:59.959Z,14.00
2023-01-30T15:57:03.224Z,12.77
2023-01-30T16:00:08.211Z,14.10
2023-01-30T16:03:15.576Z,10.60
2023-01-30T16:06:25.309Z,15.10
2023-01-30T16:09:30.072Z,13.30
2023-01-30T16:12:33.707Z,15.10
2023-01-30T16:15:43.085Z,12.97
2023-01-30T16:18:50.977Z,15.03
2023-01-30T16:21:56.634Z,12.60
2023-01-30T16:25:01.764Z,14.83
2023-01-30T16:28:05.562Z,17.30
2023-01-30T16:31:10.682Z,16.03
2023-01-30T16:34:30.124Z,13.90
2023-01-30T16:37:33.538Z,16.73
2023-01-30T16:40:47.521Z,19.13
2023-01-30T16:44:10.225Z,19.60
2023-01-30T16:47:25.182Z,16.47
2023-01-30T16:50:28.676Z,19.50
2023-01-30T16:53:34.644Z,15.40
2023-01-30T16:56:41.130Z,15.30
2023-01-30T16:59:48.674Z,17.90
2023-01-30T17:02:55.888Z,37.83
2023-01-30T17:06:01.023Z,19.07
2023-01-30T17:09:05.466Z,25.77
2023-01-30T17:12:44.886Z,20.73
2023-01-30T17:15:48.773Z,21.90
2023-01-30T17:18:53.207Z,18.00
2023-01-30T17:21:58.310Z,18.03
2023-01-30T17:25:05.130Z,18.73
2023-01-30T17:28:13.526Z,18.60
2023-01-30T17:31:22.400Z,16.67
2023-01-30T17:34:28.869Z,18.70
2023-01-30T17:37:32.861Z,16.10
2023-01-30T17:40:40.222Z,13.73
2023-01-30T17:43:46.101Z,11.23
2023-01-30T17:46:51.434Z,12.53
2023-01-30T17:49:57.668Z,8.90
2023-01-30T17:53:01.007Z,12.50
2023-01-30T17:56:06.504Z,14.13
2023-01-30T17:59:16.618Z,13.90
2023-01-30T18:02:20.146Z,18.53
2023-01-30T18:05:24.803Z,15.00
2023-01-30T18:08:28.851Z,4.63
2023-01-30T18:11:34.411Z,3.40
2023-01-30T18:14:40.512Z,2.13
2023-01-30T18:17:47.810Z,2.63
2023-01-30T18:20:52.525Z,0.90
2023-01-30T18:23:56.176Z,1.93
2023-01-30T18:27:01.957Z,8.50
2023-01-30T18:30:17.009Z,10.40
2023-01-30T18:33:22.534Z,8.53
2023-01-30T18:36:27.666Z,6.20
2023-01-30T18:39:31.988Z,2.40
2023-01-30T18:42:36.441Z,1.30
2023-01-30T18:45:43.573Z,1.50
2023-01-30T18:48:48.637Z,1.60
2023-01-30T18:51:53.097Z,1.10
2023-01-30T18:54:58.965Z,6.40
2023-01-30T18:58:11.715Z,1.97
2023-01-30T19:01:20.529Z,1.60
2023-01-30T19:04:25.343Z,1.43
2023-01-30T19:07:30.310Z,4.90
2023-01-30T19:10:35.397Z,3.80
2023-01-30T19:13:38.770Z,1.70
2023-01-30T19:16:44.707Z,2.30
2023-01-30T19:19:49.878Z,1.13
2023-01-30T19:22:55.716Z,1.43
2023-01-30T19:26:01.554Z,0.90
2023-01-30T19:29:06.693Z,2.83
2023-01-30T19:32:13.163Z,1.27
2023-01-30T19:35:21.578Z,2.70
2023-01-30T19:38:28.467Z,0.93
2023-01-30T19:41:34.598Z,1.70
2023-01-30T19:44:41.771Z,1.70
2023-01-30T19:47:46.927Z,1.83
2023-01-30T19:50:52.131Z,1.27
2023-01-30T19:54:01.847Z,2.70
2023-01-30T19:57:06.281Z,2.77
2023-01-30T20:00:14.185Z,1.80
2023-01-30T20:03:21.843Z,2.57
2023-01-30T20:06:28.503Z,3.40
2023-01-30T20:09:32.920Z,1.97
2023-01-30T20:12:38.429Z,1.40
2023-01-30T20:15:42.583Z,1.90
2023-01-30T20:18:48.620Z,1.17
2023-01-30T20:21:53.859Z,2.13
2023-01-30T20:25:00.319Z,1.30
2023-01-30T20:28:05.289Z,3.00
2023-01-30T20:31:14.814Z,1.87
2023-01-30T20:34:21.106Z,1.77
2023-01-30T20:37:26.123Z,2.10
2023-01-30T20:40:30.830Z,1.17
2023-01-30T20:43:35.889Z,1.13
2023-01-30T20:46:43.306Z,4.60
2023-01-30T20:49:48.806Z,2.07
2023-01-30T20:52:53.916Z,1.33
2023-01-30T20:56:02.703Z,3.60
2023-01-30T20:59:08.627Z,1.00
2023-01-30T21:02:13.021Z,1.13
2023-01-30T21:05:19.795Z,1.60
2023-01-30T21:08:24.432Z,1.37
2023-01-30T21:11:28.578Z,1.53
2023-01-30T21:14:31.828Z,6.87
2023-01-30T21:17:37.100Z,1.53
2023-01-30T21:20:44.629Z,1.40
2023-01-30T21:23:49.000Z,1.27
2023-01-30T21:26:52.924Z,1.57
2023-01-30T21:29:56.211Z,3.80
2023-01-30T21:32:59.951Z,1.50
2023-01-30T21:36:05.334Z,1.57
2023-01-30T21:39:26.115Z,0.90
2023-01-30T21:42:46.817Z,0.87
2023-01-30T21:45:50.050Z,1.43
2023-01-30T21:48:54.427Z,0.93
2023-01-30T21:51:59.021Z,0.97
2023-01-30T21:55:02.401Z,2.37
2023-01-30T21:58:05.589Z,1.47
2023-01-30T22:01:09.502Z,1.00
2023-01-30T22:04:14.875Z,1.27
2023-01-30T22:07:19.606Z,1.23
2023-01-30T22:10:23.073Z,1.20
2023-01-30T22:13:26.245Z,1.30
2023-01-30T22:16:33.057Z,1.27
2023-01-30T22:19:36.603Z,1.33
2023-01-30T22:22:41.190Z,1.27
2023-01-30T22:25:44.357Z,1.63
2023-01-30T22:28:48.183Z,1.47
2023-01-30T22:31:51.696Z,1.30
2023-01-30T22:34:54.959Z,3.20
2023-01-30T22:37:59.520Z,3.10
2023-01-30T22:41:04.173Z,1.50
2023-01-30T22:44:10.962Z,2.23
2023-01-30T22:47:14.212Z,2.73
2023-01-30T22:50:18.219Z,0.87
2023-01-30T22:53:22.786Z,1.70
2023-01-30T22:56:27.906Z,1.30
2023-01-30T22:59:31.975Z,1.60
2023-01-30T23:02:35.863Z,2.83
2023-01-30T23:05:39.232Z,2.30
2023-01-30T23:08:45.391Z,2.70
2023-01-30T23:12:11.036Z,1.93
2023-01-30T23:15:14.194Z,1.13
2023-01-30T23:18:35.460Z,1.10
2023-01-30T23:21:40.650Z,1.00
2023-01-30T23:24:45.298Z,0.93
2023-01-30T23:27:48.461Z,1.30
2023-01-30T23:30:51.694Z,0.90
2023-01-30T23:33:55.678Z,1.00
2023-01-30T23:36:58.807Z,1.20
2023-01-30T23:40:03.356Z,1.70
2023-01-30T23:43:06.638Z,2.40
2023-01-30T23:46:20.895Z,1.13
2023-01-30T23:49:24.242Z,1.50
2023-01-30T23:52:29.086Z,1.40
2023-01-30T23:55:33.610Z,0.90
2023-01-30T23:58:37.421Z,0.90
